Etusivu
METAR-TAF:

METAR-TAF

Lentoasemat :

Nancy, Ranska

Leveyspiiri: 48-35N, Pituuspiiri: 005-58E, korkeus merenpinnasta: 336 m

Tämänhetkinen sää

Tämä raportti tehtiin 21 minuuttia sitten, kello 18.30 UTC
Tuuli 11 kn lännestä/luoteesta
Lämpötila 6°C
Kosteus 87%
Ilmanpaine 1004 hPa
Näkyvyys 10 km tai enemmän
Pilvistä 800 ft:n korkeudessa

METAR: LFSO 031830Z AUTO 30011KT 9999 OVC008 06/04 Q1004

Aika: 19:51 (18:51 UTC)


TAF: puuttuu

Säähavainnot ja -ennusteet yli 4000 lentoasemalta (METAR- ja TAF-raportit).

Käytössä olevat sääasemat on merkitty karttaan keltaisilla ja punaisilla pisteillä.

Aseta hiiri pisteen päälle nähdäksesi sääaseman nimen.

Klikkaa sitten nähdäksesi säähavainnot ja -ennusteet.

Kartan vaihtaminen: klikkaa mustalla rastilla varustettuja vihreitä pisteitä, niin voit zoomata sisään; viivalla varustettua vihreää pistettä, niin voit zoomata ulos tai vihreitä nuolia, niin pääset viereisille kartoille.


METAR-TAF: